Weather Data

Pearl Creek Farm: 8878 N Farm Road 75, Walnut Grove MO 65770

<== Previous Day (Saturday 25 Jan 2014) | Next Day (Monday 27 Jan 2014) ==>

Summary Precipitation Data For Sunday 26 January 2014

ElementValueUnits
Precipitation0"
Notes(none)
SourcePearl Creek Farm

Summary Temperature Data For Sunday 26 January 2014

ElementValueUnits
High Temperature59 oF
Low Temperature27 oF
Average Temperature44 oF
High Humidity85 %
Low Humidity39 %
Average Humidity63 %
SourcePearl Creek Farm

Detail Temperature Data For Sunday 26 January 2014

Date / TimeTemp (F)RH (%)Dew Pt (F)Report Date / TimeSource
2014-01-26 00:00:00 27 85 23.0 2014-02-09 14:43:36 Pearl Creek Farm
2014-01-26 00:30:00 29 85 24.9 2014-02-09 14:43:36 Pearl Creek Farm
2014-01-26 01:00:00 32 83 27.3 2014-02-09 14:43:36 Pearl Creek Farm
2014-01-26 01:30:00 33 81 27.7 2014-02-09 14:43:36 Pearl Creek Farm
2014-01-26 02:00:00 35 80 29.3 2014-02-09 14:43:36 Pearl Creek Farm
2014-01-26 02:30:00 36 78 29.8 2014-02-09 14:43:36 Pearl Creek Farm
2014-01-26 03:00:00 36 78 29.7 2014-02-09 14:43:36 Pearl Creek Farm
2014-01-26 03:30:00 36 78 29.7 2014-02-09 14:43:36 Pearl Creek Farm
2014-01-26 04:00:00 35 78 28.7 2014-02-09 14:43:36 Pearl Creek Farm
2014-01-26 04:30:00 35 79 29.2 2014-02-09 14:43:36 Pearl Creek Farm
2014-01-26 05:00:00 34 78 27.9 2014-02-09 14:43:36 Pearl Creek Farm
2014-01-26 05:30:00 34 80 28.5 2014-02-09 14:43:36 Pearl Creek Farm
2014-01-26 06:00:00 39 77 32.4 2014-02-09 14:43:36 Pearl Creek Farm
2014-01-26 06:30:00 42 72 33.7 2014-02-09 14:43:36 Pearl Creek Farm
2014-01-26 07:00:00 42 71 33.1 2014-02-09 14:43:36 Pearl Creek Farm
2014-01-26 07:30:00 43 69 33.6 2014-02-09 14:43:36 Pearl Creek Farm
2014-01-26 08:00:00 44 69 34.5 2014-02-09 14:43:36 Pearl Creek Farm
2014-01-26 08:30:00 46 67 35.5 2014-02-09 14:43:36 Pearl Creek Farm
2014-01-26 09:00:00 48 63 35.8 2014-02-09 14:43:36 Pearl Creek Farm
2014-01-26 09:30:00 50 60 36.7 2014-02-09 14:43:36 Pearl Creek Farm
2014-01-26 10:00:00 51 58 36.6 2014-02-09 14:43:36 Pearl Creek Farm
2014-01-26 10:30:00 53 54 36.8 2014-02-09 14:43:36 Pearl Creek Farm
2014-01-26 11:00:00 55 52 37.5 2014-02-09 14:43:36 Pearl Creek Farm
2014-01-26 11:30:00 55 50 36.5 2014-02-09 14:43:36 Pearl Creek Farm
2014-01-26 12:00:00 55 49 36.2 2014-02-09 14:43:36 Pearl Creek Farm
2014-01-26 12:30:00 56 48 36.6 2014-02-09 14:43:36 Pearl Creek Farm
2014-01-26 13:00:00 57 48 37.3 2014-02-09 14:43:36 Pearl Creek Farm
2014-01-26 13:30:00 58 46 37.4 2014-02-09 14:43:36 Pearl Creek Farm
2014-01-26 14:00:00 58 45 36.8 2014-02-09 14:43:36 Pearl Creek Farm
2014-01-26 14:30:00 59 44 37.2 2014-02-09 14:43:36 Pearl Creek Farm
2014-01-26 15:00:00 59 45 37.4 2014-02-09 14:43:36 Pearl Creek Farm
2014-01-26 15:30:00 59 44 37.2 2014-02-09 14:43:36 Pearl Creek Farm
2014-01-26 16:00:00 58 45 36.5 2014-02-09 14:43:36 Pearl Creek Farm
2014-01-26 16:30:00 57 46 36.2 2014-02-09 14:43:36 Pearl Creek Farm
2014-01-26 17:00:00 56 47 36.1 2014-02-09 14:43:36 Pearl Creek Farm
2014-01-26 17:30:00 52 49 33.5 2014-02-09 14:43:36 Pearl Creek Farm
2014-01-26 18:00:00 45 54 29.4 2014-02-09 14:43:36 Pearl Creek Farm
2014-01-26 18:30:00 39 62 26.9 2014-02-09 14:43:36 Pearl Creek Farm
2014-01-26 19:00:00 37 67 26.9 2014-02-09 14:43:36 Pearl Creek Farm
2014-01-26 19:30:00 36 70 27.2 2014-02-09 14:43:36 Pearl Creek Farm
2014-01-26 20:00:00 36 71 27.4 2014-02-09 14:43:36 Pearl Creek Farm
2014-01-26 20:30:00 34 72 26.0 2014-02-09 14:43:36 Pearl Creek Farm
2014-01-26 21:00:00 34 74 26.4 2014-02-09 14:43:36 Pearl Creek Farm
2014-01-26 21:30:00 34 74 26.6 2014-02-09 14:43:36 Pearl Creek Farm
2014-01-26 22:00:00 40 64 28.8 2014-02-09 14:43:36 Pearl Creek Farm
2014-01-26 22:30:00 38 53 22.2 2014-02-09 14:43:36 Pearl Creek Farm
2014-01-26 23:00:00 36 45 16.8 2014-02-09 14:43:36 Pearl Creek Farm
2014-01-26 23:30:00 34 39 11.4 2014-02-09 14:43:36 Pearl Creek Farm

A total of 48 rows are displayed.